createdAt,value
2022-12-27T00:01:18.891Z,100720.16
2022-12-27T00:03:45.760Z,100720.25
2022-12-27T00:06:18.227Z,100711.72
2022-12-27T00:08:46.072Z,100715.63
2022-12-27T00:11:17.468Z,100714.50
2022-12-27T00:13:44.977Z,100712.72
2022-12-27T00:16:14.215Z,100723.66
2022-12-27T00:18:41.814Z,100738.81
2022-12-27T00:21:11.310Z,100723.97
2022-12-27T00:23:40.750Z,100732.69
2022-12-27T00:26:12.874Z,100725.66
2022-12-27T00:28:39.408Z,100735.31
2022-12-27T00:31:06.135Z,100729.44
2022-12-27T00:33:35.566Z,100722.00
2022-12-27T00:36:04.476Z,100713.03
2022-12-27T00:38:32.289Z,100715.56
2022-12-27T00:40:59.797Z,100713.84
2022-12-27T00:43:26.710Z,100717.28
2022-12-27T00:45:54.246Z,100716.66
2022-12-27T00:48:20.913Z,100698.78
2022-12-27T00:50:47.812Z,100690.34
2022-12-27T00:53:14.415Z,100686.56
2022-12-27T00:55:45.365Z,100690.19
2022-12-27T00:58:12.057Z,100682.41
2022-12-27T01:00:38.854Z,100669.50
2022-12-27T01:03:05.529Z,100662.16
2022-12-27T01:05:32.331Z,100665.28
2022-12-27T01:07:58.886Z,100666.50
2022-12-27T01:10:25.433Z,100661.47
2022-12-27T01:12:51.981Z,100665.50
2022-12-27T01:15:18.854Z,100662.69
2022-12-27T01:17:45.514Z,100661.13
2022-12-27T01:20:12.235Z,100663.19
2022-12-27T01:22:38.894Z,100667.25
2022-12-27T01:25:06.015Z,100675.16
2022-12-27T01:27:32.499Z,100699.16
2022-12-27T01:29:59.039Z,100692.91
2022-12-27T01:32:25.658Z,100695.91
2022-12-27T01:34:52.152Z,100690.25
2022-12-27T01:37:18.823Z,100689.34
2022-12-27T01:39:45.290Z,100680.41
2022-12-27T01:42:35.486Z,100674.09
2022-12-27T01:45:03.940Z,100680.47
2022-12-27T01:47:42.474Z,100689.03
2022-12-27T01:50:14.947Z,100677.50
2022-12-27T01:52:53.365Z,100672.44
2022-12-27T01:55:32.349Z,100665.09
2022-12-27T01:58:09.353Z,100668.97
2022-12-27T02:00:36.051Z,100666.31
2022-12-27T02:03:05.867Z,100653.63
2022-12-27T02:05:33.724Z,100659.03
2022-12-27T02:08:20.428Z,100659.59
2022-12-27T02:10:46.954Z,100675.88
2022-12-27T02:13:15.306Z,100666.56
2022-12-27T02:15:41.948Z,100673.91
2022-12-27T02:18:08.498Z,100667.19
2022-12-27T02:21:02.948Z,100669.41
2022-12-27T02:24:05.232Z,100670.28
2022-12-27T02:26:43.843Z,100670.38
2022-12-27T02:29:37.781Z,100677.00
2022-12-27T02:32:13.385Z,100672.59
2022-12-27T02:34:45.069Z,100680.19
2022-12-27T02:37:13.396Z,100684.81
2022-12-27T02:39:45.602Z,100688.78
2022-12-27T02:42:33.395Z,100692.91
2022-12-27T02:45:18.618Z,100690.25
2022-12-27T02:48:05.581Z,100687.22
2022-12-27T02:51:19.882Z,100681.44
2022-12-27T02:53:52.462Z,100678.97
2022-12-27T02:57:05.797Z,100678.31
2022-12-27T02:59:35.157Z,100667.56
2022-12-27T03:02:34.348Z,100672.75
2022-12-27T03:05:15.206Z,100673.13
2022-12-27T03:08:01.447Z,100682.28
2022-12-27T03:11:13.285Z,100683.69
2022-12-27T03:14:05.835Z,100684.59
2022-12-27T03:16:41.780Z,100684.38
2022-12-27T03:19:58.958Z,100688.63
2022-12-27T03:22:47.283Z,100679.41
2022-12-27T03:25:28.577Z,100689.81
2022-12-27T03:28:31.679Z,100679.56
2022-12-27T03:31:24.730Z,100680.66
2022-12-27T03:34:04.655Z,100679.66
2022-12-27T03:36:52.499Z,100678.88
2022-12-27T03:39:31.697Z,100679.34
2022-12-27T03:42:21.971Z,100678.81
2022-12-27T03:44:49.241Z,100686.09
2022-12-27T03:47:27.719Z,100679.72
2022-12-27T03:50:04.276Z,100677.47
2022-12-27T03:52:57.829Z,100672.09
2022-12-27T03:55:29.974Z,100663.00
2022-12-27T03:57:59.751Z,100661.00
2022-12-27T04:00:26.578Z,100668.22
2022-12-27T04:02:53.236Z,100665.25
2022-12-27T04:05:19.821Z,100660.34
2022-12-27T04:08:04.700Z,100666.22
2022-12-27T04:10:49.691Z,100656.00
2022-12-27T04:13:34.447Z,100663.75
2022-12-27T04:16:19.394Z,100661.19
2022-12-27T04:19:04.587Z,100662.94
2022-12-27T04:21:49.651Z,100659.72
2022-12-27T04:24:34.354Z,100660.75
2022-12-27T04:27:20.499Z,100676.41
2022-12-27T04:30:05.354Z,100670.19
2022-12-27T04:32:50.219Z,100671.75
2022-12-27T04:35:16.805Z,100674.47
2022-12-27T04:37:43.333Z,100678.88
2022-12-27T04:40:28.828Z,100670.50
2022-12-27T04:43:13.779Z,100672.03
2022-12-27T04:45:59.138Z,100680.31
2022-12-27T04:48:48.345Z,100677.03
2022-12-27T04:51:34.060Z,100673.00
2022-12-27T04:54:19.486Z,100674.59
2022-12-27T04:56:46.090Z,100660.44
2022-12-27T04:59:31.018Z,100663.06
2022-12-27T05:02:03.355Z,100648.34
2022-12-27T05:04:32.053Z,100656.72
2022-12-27T05:06:59.132Z,100657.06
2022-12-27T05:09:44.325Z,100654.69
2022-12-27T05:12:28.992Z,100649.31
2022-12-27T05:14:55.479Z,100650.34
2022-12-27T05:17:21.936Z,100645.00
2022-12-27T05:19:48.444Z,100642.53
2022-12-27T05:22:33.479Z,100640.81
2022-12-27T05:25:18.479Z,100635.78
2022-12-27T05:27:45.010Z,100640.16
2022-12-27T05:30:12.040Z,100637.69
2022-12-27T05:32:38.524Z,100633.53
2022-12-27T05:35:05.524Z,100637.13
2022-12-27T05:37:32.205Z,100647.34
2022-12-27T05:39:58.709Z,100647.41
2022-12-27T05:42:25.261Z,100636.44
2022-12-27T05:44:51.830Z,100645.66
2022-12-27T05:47:18.428Z,100645.97
2022-12-27T05:49:44.892Z,100640.75
2022-12-27T05:52:11.388Z,100637.13
2022-12-27T05:54:37.879Z,100620.59
2022-12-27T05:57:04.476Z,100622.03
2022-12-27T05:59:30.969Z,100630.44
2022-12-27T06:01:57.755Z,100631.09
2022-12-27T06:04:24.383Z,100617.44
2022-12-27T06:06:50.892Z,100635.28
2022-12-27T06:09:17.460Z,100636.28
2022-12-27T06:11:44.029Z,100641.41
2022-12-27T06:14:10.488Z,100640.53
2022-12-27T06:16:37.214Z,100643.72
2022-12-27T06:19:04.401Z,100637.09
2022-12-27T06:21:31.174Z,100643.25
2022-12-27T06:23:57.691Z,100653.53
2022-12-27T06:26:26.628Z,100647.59
2022-12-27T06:28:55.658Z,100643.03
2022-12-27T06:31:23.271Z,100648.34
2022-12-27T06:33:51.481Z,100642.63
2022-12-27T06:36:23.337Z,100648.41
2022-12-27T06:38:50.649Z,100644.38
2022-12-27T06:41:18.446Z,100650.16
2022-12-27T06:43:46.512Z,100643.25
2022-12-27T06:46:17.735Z,100636.50
2022-12-27T06:48:45.324Z,100630.63
2022-12-27T06:51:13.414Z,100641.63
2022-12-27T06:53:40.335Z,100646.56
2022-12-27T06:56:10.016Z,100641.41
2022-12-27T06:58:36.736Z,100637.28
2022-12-27T07:01:19.775Z,100633.94
2022-12-27T07:03:55.644Z,100630.63
2022-12-27T07:06:23.890Z,100650.53
2022-12-27T07:08:51.146Z,100644.97
2022-12-27T07:11:18.889Z,100648.28
2022-12-27T07:13:48.257Z,100651.00
2022-12-27T07:16:17.136Z,100649.19
2022-12-27T07:18:44.547Z,100636.34
2022-12-27T07:21:16.883Z,100629.22
2022-12-27T07:23:45.008Z,100616.75
2022-12-27T07:26:20.401Z,100635.34
2022-12-27T07:28:47.416Z,100642.16
2022-12-27T07:31:16.994Z,100636.91
2022-12-27T07:33:44.664Z,100632.34
2022-12-27T07:36:17.600Z,100632.00
2022-12-27T07:38:44.741Z,100624.16
2022-12-27T07:41:12.444Z,100617.97
2022-12-27T07:43:40.012Z,100615.16
2022-12-27T07:46:12.770Z,100622.13
2022-12-27T07:48:40.294Z,100633.31
2022-12-27T07:51:07.477Z,100633.97
2022-12-27T07:53:34.623Z,100637.53
2022-12-27T07:56:06.404Z,100614.50
2022-12-27T07:58:37.392Z,100599.13
2022-12-27T08:01:05.115Z,100614.69
2022-12-27T08:03:32.150Z,100630.94
2022-12-27T08:05:58.648Z,100633.94
2022-12-27T08:08:30.503Z,100636.88
2022-12-27T08:11:00.582Z,100636.53
2022-12-27T08:13:32.276Z,100651.66
2022-12-27T08:15:58.812Z,100663.38
2022-12-27T08:18:25.499Z,100667.72
2022-12-27T08:20:52.437Z,100670.09
2022-12-27T08:23:18.908Z,100672.50
2022-12-27T08:25:48.961Z,100663.28
2022-12-27T08:28:17.645Z,100658.44
2022-12-27T08:30:46.212Z,100669.94
2022-12-27T08:33:12.823Z,100667.78
2022-12-27T08:35:53.768Z,100667.41
2022-12-27T08:38:21.361Z,100670.59
2022-12-27T08:40:47.883Z,100679.41
2022-12-27T08:43:14.641Z,100686.31
2022-12-27T08:45:41.578Z,100689.53
2022-12-27T08:48:08.659Z,100703.34
2022-12-27T08:50:35.216Z,100717.97
2022-12-27T08:53:03.620Z,100716.44
2022-12-27T08:55:31.136Z,100719.53
2022-12-27T08:58:02.411Z,100707.84
2022-12-27T09:00:29.669Z,100706.69
2022-12-27T09:02:57.195Z,100700.38
2022-12-27T09:05:25.811Z,100703.94
2022-12-27T09:07:52.555Z,100713.69
2022-12-27T09:10:20.366Z,100723.41
2022-12-27T09:12:47.352Z,100732.53
2022-12-27T09:15:14.443Z,100735.41
2022-12-27T09:17:41.298Z,100745.69
2022-12-27T09:20:08.477Z,100752.59
2022-12-27T09:22:35.713Z,100747.94
2022-12-27T09:25:02.363Z,100744.31
2022-12-27T09:27:28.908Z,100749.00
2022-12-27T09:29:55.426Z,100758.94
2022-12-27T09:32:21.953Z,100774.41
2022-12-27T09:34:48.492Z,100773.94
2022-12-27T09:37:15.704Z,100787.31
2022-12-27T09:39:42.268Z,100788.88
2022-12-27T09:45:33.870Z,100796.53
2022-12-27T09:48:13.747Z,100804.59
2022-12-27T09:50:51.203Z,100808.47
2022-12-27T09:53:26.599Z,100826.47
2022-12-27T09:55:56.193Z,100837.72
2022-12-27T09:58:50.705Z,100830.63
2022-12-27T10:01:26.185Z,100827.31
2022-12-27T10:03:53.202Z,100837.69
2022-12-27T10:06:22.817Z,100824.25
2022-12-27T10:09:29.084Z,100831.06
2022-12-27T10:11:58.217Z,100828.16
2022-12-27T10:14:33.651Z,100818.19
2022-12-27T10:17:13.704Z,100841.16
2022-12-27T10:19:53.605Z,100853.50
2022-12-27T10:22:42.862Z,100829.19
2022-12-27T10:25:13.868Z,100822.03
2022-12-27T10:27:41.670Z,100836.41
2022-12-27T10:30:18.713Z,100841.75
2022-12-27T10:32:46.140Z,100862.28
2022-12-27T10:35:16.567Z,100859.88
2022-12-27T10:37:44.481Z,100862.78
2022-12-27T10:40:17.198Z,100866.63
2022-12-27T10:43:19.594Z,100886.88
2022-12-27T10:45:46.224Z,100889.56
2022-12-27T10:48:25.135Z,100895.47
2022-12-27T10:50:59.775Z,100911.81
2022-12-27T10:53:38.244Z,100910.72
2022-12-27T10:56:25.064Z,100897.50
2022-12-27T10:58:58.825Z,100902.34
2022-12-27T11:01:27.482Z,100902.44
2022-12-27T11:04:19.389Z,100913.34
2022-12-27T11:07:05.159Z,100933.97
2022-12-27T11:09:33.850Z,100960.81
2022-12-27T11:12:20.932Z,100945.78
2022-12-27T11:14:55.191Z,100923.09
2022-12-27T11:17:35.167Z,100907.78
2022-12-27T11:20:16.461Z,100916.50
2022-12-27T11:22:51.543Z,100920.44
2022-12-27T11:25:18.414Z,100912.75
2022-12-27T11:27:52.744Z,100910.03
2022-12-27T11:30:22.724Z,100888.00
2022-12-27T11:32:49.549Z,100862.28
2022-12-27T11:35:19.277Z,100849.63
2022-12-27T11:37:46.960Z,100849.72
2022-12-27T11:40:23.033Z,100856.09
2022-12-27T11:43:17.696Z,100859.47
2022-12-27T11:45:51.083Z,100860.88
2022-12-27T11:48:33.105Z,100879.31
2022-12-27T11:51:23.006Z,100888.03
2022-12-27T11:54:25.027Z,100896.00
2022-12-27T11:57:15.246Z,100911.59
2022-12-27T12:00:13.380Z,100918.03
2022-12-27T12:02:42.580Z,100913.25
2022-12-27T12:05:46.946Z,100899.31
2022-12-27T12:08:31.803Z,100906.78
2022-12-27T12:11:23.883Z,100913.34
2022-12-27T12:14:31.573Z,100910.78
2022-12-27T12:17:36.163Z,100918.09
2022-12-27T12:20:11.775Z,100905.25
2022-12-27T12:22:54.269Z,100901.88
2022-12-27T12:25:49.532Z,100911.25
2022-12-27T12:31:42.066Z,100917.25
2022-12-27T12:34:17.483Z,100907.19
2022-12-27T12:37:18.950Z,100895.53
2022-12-27T12:40:15.054Z,100883.13
2022-12-27T12:43:07.055Z,100871.97
2022-12-27T12:45:54.450Z,100871.28
2022-12-27T12:48:38.248Z,100878.31
2022-12-27T12:51:21.119Z,100866.25
2022-12-27T12:54:13.799Z,100878.19
2022-12-27T12:57:06.545Z,100888.63
2022-12-27T12:59:39.095Z,100889.25
2022-12-27T13:02:18.182Z,100908.16
2022-12-27T13:05:03.103Z,100907.38
2022-12-27T13:07:37.744Z,100908.53
2022-12-27T13:10:18.270Z,100891.31
2022-12-27T13:13:18.932Z,100882.66
2022-12-27T13:16:06.641Z,100864.66
2022-12-27T13:18:42.214Z,100877.94
2022-12-27T13:21:42.977Z,100876.13
2022-12-27T13:24:29.379Z,100873.78
2022-12-27T13:27:39.538Z,100915.50
2022-12-27T13:30:12.017Z,100899.75
2022-12-27T13:33:06.168Z,100909.41
2022-12-27T13:35:51.623Z,100909.94
2022-12-27T13:38:18.093Z,100911.53
2022-12-27T13:41:15.407Z,100919.16
2022-12-27T13:43:52.219Z,100925.66
2022-12-27T13:46:40.050Z,100922.78
2022-12-27T13:49:41.796Z,100925.47
2022-12-27T13:52:53.320Z,100936.28
2022-12-27T13:55:42.445Z,100927.50
2022-12-27T13:58:36.402Z,100938.59
2022-12-27T14:01:29.955Z,100922.88
2022-12-27T14:04:34.773Z,100924.78
2022-12-27T14:07:11.252Z,100915.22
2022-12-27T14:09:48.501Z,100919.00
2022-12-27T14:12:36.674Z,100929.94
2022-12-27T14:15:07.755Z,100926.78
2022-12-27T14:17:55.778Z,100928.56
2022-12-27T14:20:44.128Z,100929.81
2022-12-27T14:23:39.010Z,100930.88
2022-12-27T14:26:34.686Z,100930.53
2022-12-27T14:29:26.082Z,100915.03
2022-12-27T14:32:23.057Z,100912.00
2022-12-27T14:35:15.975Z,100895.22
2022-12-27T14:38:05.609Z,100893.97
2022-12-27T14:40:34.917Z,100889.44
2022-12-27T14:43:20.654Z,100879.00
2022-12-27T14:46:24.131Z,100872.06
2022-12-27T14:49:35.213Z,100878.09
2022-12-27T14:52:32.292Z,100874.50
2022-12-27T14:55:13.760Z,100870.28
2022-12-27T14:57:49.098Z,100875.66
2022-12-27T15:00:20.939Z,100867.19
2022-12-27T15:03:09.308Z,100860.31
2022-12-27T15:05:44.699Z,100871.81
2022-12-27T15:08:32.704Z,100870.56
2022-12-27T15:11:41.386Z,100869.94
2022-12-27T15:14:40.527Z,100860.78
2022-12-27T15:17:21.116Z,100870.84
2022-12-27T15:19:47.579Z,100886.56
2022-12-27T15:22:40.237Z,100878.50
2022-12-27T15:25:15.381Z,100882.44
2022-12-27T15:28:06.619Z,100866.25
2022-12-27T15:30:58.281Z,100865.03
2022-12-27T15:34:01.407Z,100854.09
2022-12-27T15:36:48.586Z,100855.09
2022-12-27T15:39:33.715Z,100852.44
2022-12-27T15:42:09.322Z,100860.38
2022-12-27T15:45:03.323Z,100848.94
2022-12-27T15:47:38.820Z,100848.97
2022-12-27T15:50:27.035Z,100846.41
2022-12-27T15:53:12.293Z,100839.81
2022-12-27T15:56:09.909Z,100839.06
2022-12-27T15:58:37.025Z,100835.75
2022-12-27T16:01:19.193Z,100849.28
2022-12-27T16:03:51.208Z,100846.38
2022-12-27T16:06:36.695Z,100828.16
2022-12-27T16:09:24.704Z,100829.63
2022-12-27T16:12:31.300Z,100828.81
2022-12-27T16:15:32.887Z,100820.16
2022-12-27T16:17:59.510Z,100808.97
2022-12-27T16:20:26.307Z,100812.16
2022-12-27T16:22:56.768Z,100800.97
2022-12-27T16:25:32.010Z,100799.84
2022-12-27T16:28:28.149Z,100782.59
2022-12-27T16:30:59.597Z,100763.47
2022-12-27T16:33:26.071Z,100748.78
2022-12-27T16:36:11.429Z,100721.09
2022-12-27T16:39:02.902Z,100710.91
2022-12-27T16:41:53.950Z,100703.88
2022-12-27T16:44:38.559Z,100697.84
2022-12-27T16:47:20.418Z,100695.13
2022-12-27T16:49:57.709Z,100671.56
2022-12-27T16:52:36.495Z,100676.78
2022-12-27T16:55:15.556Z,100677.31
2022-12-27T16:57:44.804Z,100664.22
2022-12-27T17:00:11.388Z,100644.28
2022-12-27T17:02:41.085Z,100634.50
2022-12-27T17:05:16.619Z,100623.09
2022-12-27T17:08:10.123Z,100620.47
2022-12-27T17:10:44.714Z,100609.03
2022-12-27T17:13:27.975Z,100601.16
2022-12-27T17:16:00.584Z,100600.13
2022-12-27T17:18:36.046Z,100588.13
2022-12-27T17:21:30.478Z,100583.63
2022-12-27T17:24:21.284Z,100581.03
2022-12-27T17:27:15.755Z,100583.59
2022-12-27T17:30:03.880Z,100586.16
2022-12-27T17:33:07.952Z,100591.09
2022-12-27T17:36:11.963Z,100577.31
2022-12-27T17:38:47.589Z,100585.81
2022-12-27T17:41:52.217Z,100585.63
2022-12-27T17:44:38.594Z,100588.19
2022-12-27T17:47:26.962Z,100580.13
2022-12-27T17:49:54.413Z,100573.91
2022-12-27T17:52:44.274Z,100577.41
2022-12-27T17:55:48.002Z,100565.22
2022-12-27T17:58:16.821Z,100569.59
2022-12-27T18:00:59.470Z,100564.47
2022-12-27T18:03:36.061Z,100563.47
2022-12-27T18:06:02.928Z,100557.41
2022-12-27T18:08:33.926Z,100558.41
2022-12-27T18:11:03.052Z,100557.91
2022-12-27T18:13:36.294Z,100563.88
2022-12-27T18:16:14.564Z,100558.59
2022-12-27T18:18:44.810Z,100562.50
2022-12-27T18:21:23.339Z,100575.34
2022-12-27T18:23:52.839Z,100572.31
2022-12-27T18:26:30.202Z,100566.31
2022-12-27T18:28:56.849Z,100569.56
2022-12-27T18:31:39.467Z,100563.31
2022-12-27T18:34:20.031Z,100577.66
2022-12-27T18:37:02.344Z,100571.47
2022-12-27T18:39:35.097Z,100577.28
2022-12-27T18:42:12.404Z,100580.84
2022-12-27T18:44:49.490Z,100573.84
2022-12-27T18:47:27.561Z,100571.28
2022-12-27T18:50:05.853Z,100565.41
2022-12-27T18:52:39.465Z,100569.38
2022-12-27T18:55:21.936Z,100560.69
2022-12-27T18:57:48.516Z,100571.66
2022-12-27T19:00:17.989Z,100558.88
2022-12-27T19:02:45.522Z,100552.69
2022-12-27T19:05:20.930Z,100563.94
2022-12-27T19:08:07.790Z,100559.44
2022-12-27T19:10:34.804Z,100547.97
2022-12-27T19:13:01.824Z,100542.63
2022-12-27T19:15:42.699Z,100547.47
2022-12-27T19:18:24.537Z,100547.94
2022-12-27T19:20:56.141Z,100546.88
2022-12-27T19:23:35.713Z,100535.53
2022-12-27T19:26:17.690Z,100533.47
2022-12-27T19:28:45.553Z,100525.00
2022-12-27T19:31:21.828Z,100518.84
2022-12-27T19:33:48.553Z,100513.66
2022-12-27T19:36:15.297Z,100516.09
2022-12-27T19:38:47.620Z,100514.38
2022-12-27T19:41:14.957Z,100507.59
2022-12-27T19:43:46.479Z,100499.00
2022-12-27T19:46:14.638Z,100503.41
2022-12-27T19:48:41.398Z,100497.47
2022-12-27T19:51:13.315Z,100499.16
2022-12-27T19:53:42.245Z,100493.19
2022-12-27T19:56:09.476Z,100483.72
2022-12-27T19:58:36.304Z,100482.94
2022-12-27T20:01:04.045Z,100478.63
2022-12-27T20:03:30.648Z,100474.44
2022-12-27T20:06:14.483Z,100470.06
2022-12-27T20:08:48.884Z,100470.88
2022-12-27T20:11:18.916Z,100465.59
2022-12-27T20:13:45.653Z,100468.03
2022-12-27T20:16:14.251Z,100473.03
2022-12-27T20:18:42.570Z,100466.81
2022-12-27T20:21:27.039Z,100458.13
2022-12-27T20:23:53.581Z,100457.25
2022-12-27T20:26:22.740Z,100458.38
2022-12-27T20:28:50.951Z,100457.44
2022-12-27T20:31:21.146Z,100457.56
2022-12-27T20:33:55.638Z,100444.44
2022-12-27T20:36:22.430Z,100448.72
2022-12-27T20:38:49.456Z,100447.66
2022-12-27T20:41:19.532Z,100440.97
2022-12-27T20:43:46.357Z,100436.63
2022-12-27T20:46:15.649Z,100439.09
2022-12-27T20:48:44.496Z,100443.59
2022-12-27T20:51:14.432Z,100435.44
2022-12-27T20:53:41.101Z,100438.69
2022-12-27T20:56:08.950Z,100425.88
2022-12-27T20:58:36.015Z,100419.13
2022-12-27T21:01:11.375Z,100421.78
2022-12-27T21:03:38.464Z,100423.97
2022-12-27T21:06:26.286Z,100421.16
2022-12-27T21:08:57.306Z,100417.75
2022-12-27T21:11:32.286Z,100407.59
2022-12-27T21:14:00.905Z,100406.72
2022-12-27T21:16:30.365Z,100401.31
2022-12-27T21:18:58.016Z,100406.66
2022-12-27T21:21:28.630Z,100400.66
2022-12-27T21:23:56.425Z,100395.84
2022-12-27T21:26:25.855Z,100394.69
2022-12-27T21:28:53.661Z,100394.44
2022-12-27T21:31:21.119Z,100401.19
2022-12-27T21:33:48.548Z,100400.75
2022-12-27T21:36:17.893Z,100406.66
2022-12-27T21:38:44.614Z,100390.25
2022-12-27T21:41:14.314Z,100383.50
2022-12-27T21:43:41.623Z,100388.44
2022-12-27T21:46:19.849Z,100382.56
2022-12-27T21:48:47.119Z,100378.00
2022-12-27T21:51:16.627Z,100381.63
2022-12-27T21:53:43.976Z,100377.22
2022-12-27T21:56:13.310Z,100377.84
2022-12-27T21:58:40.805Z,100381.44
2022-12-27T22:01:12.895Z,100380.44
2022-12-27T22:03:41.923Z,100365.72
2022-12-27T22:06:28.731Z,100373.41
2022-12-27T22:09:00.774Z,100374.09
2022-12-27T22:11:28.679Z,100371.59
2022-12-27T22:13:56.251Z,100371.81
2022-12-27T22:16:25.343Z,100371.78
2022-12-27T22:18:52.191Z,100366.59
2022-12-27T22:21:21.939Z,100368.09
2022-12-27T22:23:51.705Z,100372.78
2022-12-27T22:26:21.401Z,100383.97
2022-12-27T22:28:48.444Z,100384.09
2022-12-27T22:31:18.123Z,100383.19
2022-12-27T22:33:44.889Z,100377.84
2022-12-27T22:36:14.303Z,100383.25
2022-12-27T22:38:41.406Z,100383.72
2022-12-27T22:41:25.973Z,100394.56
2022-12-27T22:43:55.592Z,100403.75
2022-12-27T22:46:22.308Z,100407.88
2022-12-27T22:48:51.271Z,100397.63
2022-12-27T22:51:20.952Z,100395.13
2022-12-27T22:53:48.115Z,100390.84
2022-12-27T22:56:16.455Z,100394.88
2022-12-27T22:58:43.756Z,100404.19
2022-12-27T23:01:15.155Z,100402.44
2022-12-27T23:03:42.440Z,100401.56
2022-12-27T23:06:12.151Z,100396.31
2022-12-27T23:08:39.798Z,100402.94
2022-12-27T23:11:16.485Z,100380.03
2022-12-27T23:13:42.985Z,100381.16
2022-12-27T23:16:09.782Z,100376.91
2022-12-27T23:18:37.425Z,100385.22
2022-12-27T23:21:20.085Z,100381.78
2022-12-27T23:23:50.452Z,100380.75
2022-12-27T23:26:19.832Z,100379.84
2022-12-27T23:28:47.900Z,100374.84
2022-12-27T23:31:15.621Z,100367.53
2022-12-27T23:33:43.421Z,100373.03
2022-12-27T23:36:10.825Z,100369.25
2022-12-27T23:38:37.674Z,100368.09
2022-12-27T23:41:07.456Z,100362.97
2022-12-27T23:43:53.699Z,100363.84
2022-12-27T23:46:25.187Z,100358.84
2022-12-27T23:48:52.206Z,100360.19
2022-12-27T23:51:19.239Z,100355.19
2022-12-27T23:53:46.013Z,100358.22
2022-12-27T23:56:26.972Z,100355.88
2022-12-27T23:58:55.541Z,100359.69
